sensor_id;sensor_type;location;lat;lon;timestamp;P1;durP1;ratioP1;P2;durP2;ratioP2
209;SDS011;90;48.810;9.120;2022-08-06T00:02:19;5.03;;;3.80;;
209;SDS011;90;48.810;9.120;2022-08-06T00:04:48;6.30;;;4.27;;
209;SDS011;90;48.810;9.120;2022-08-06T00:07:16;4.83;;;4.10;;
209;SDS011;90;48.810;9.120;2022-08-06T00:09:43;4.40;;;4.10;;
209;SDS011;90;48.810;9.120;2022-08-06T00:12:12;3.93;;;3.73;;
209;SDS011;90;48.810;9.120;2022-08-06T00:14:39;4.93;;;3.53;;
209;SDS011;90;48.810;9.120;2022-08-06T00:17:06;7.13;;;4.00;;
209;SDS011;90;48.810;9.120;2022-08-06T00:19:34;3.90;;;3.73;;
209;SDS011;90;48.810;9.120;2022-08-06T00:22:01;5.50;;;4.00;;
209;SDS011;90;48.810;9.120;2022-08-06T00:24:28;3.80;;;3.60;;
209;SDS011;90;48.810;9.120;2022-08-06T00:26:55;4.40;;;4.10;;
209;SDS011;90;48.810;9.120;2022-08-06T00:29:24;6.33;;;3.97;;
209;SDS011;90;48.810;9.120;2022-08-06T00:31:51;4.63;;;4.33;;
209;SDS011;90;48.810;9.120;2022-08-06T00:34:18;4.20;;;3.53;;
209;SDS011;90;48.810;9.120;2022-08-06T00:36:45;4.57;;;4.30;;
209;SDS011;90;48.810;9.120;2022-08-06T00:39:12;4.43;;;4.13;;
209;SDS011;90;48.810;9.120;2022-08-06T00:41:42;4.73;;;4.43;;
209;SDS011;90;48.810;9.120;2022-08-06T00:44:10;3.83;;;3.63;;
209;SDS011;90;48.810;9.120;2022-08-06T00:46:39;4.20;;;3.53;;
209;SDS011;90;48.810;9.120;2022-08-06T00:49:06;3.87;;;3.67;;
209;SDS011;90;48.810;9.120;2022-08-06T00:51:33;4.23;;;3.97;;
209;SDS011;90;48.810;9.120;2022-08-06T00:54:01;4.57;;;4.20;;
209;SDS011;90;48.810;9.120;2022-08-06T00:56:28;4.50;;;3.40;;
209;SDS011;90;48.810;9.120;2022-08-06T00:58:55;3.83;;;3.63;;
209;SDS011;90;48.810;9.120;2022-08-06T01:01:22;3.70;;;3.50;;
209;SDS011;90;48.810;9.120;2022-08-06T01:03:51;4.00;;;3.80;;
209;SDS011;90;48.810;9.120;2022-08-06T01:06:18;3.77;;;3.60;;
209;SDS011;90;48.810;9.120;2022-08-06T01:08:45;3.90;;;3.70;;
209;SDS011;90;48.810;9.120;2022-08-06T01:11:13;3.53;;;3.30;;
209;SDS011;90;48.810;9.120;2022-08-06T01:13:40;3.83;;;3.63;;
209;SDS011;90;48.810;9.120;2022-08-06T01:16:11;3.43;;;3.23;;
209;SDS011;90;48.810;9.120;2022-08-06T01:18:53;4.03;;;3.43;;
209;SDS011;90;48.810;9.120;2022-08-06T01:21:45;3.73;;;3.53;;
209;SDS011;90;48.810;9.120;2022-08-06T01:24:43;3.90;;;3.70;;
209;SDS011;90;48.810;9.120;2022-08-06T01:27:28;3.90;;;3.70;;
209;SDS011;90;48.810;9.120;2022-08-06T01:30:03;5.33;;;3.70;;
209;SDS011;90;48.810;9.120;2022-08-06T01:32:34;4.17;;;3.93;;
209;SDS011;90;48.810;9.120;2022-08-06T01:35:06;3.80;;;3.60;;
209;SDS011;90;48.810;9.120;2022-08-06T01:37:38;5.37;;;3.37;;
209;SDS011;90;48.810;9.120;2022-08-06T01:40:11;4.47;;;3.80;;
209;SDS011;90;48.810;9.120;2022-08-06T01:42:44;4.53;;;4.23;;
209;SDS011;90;48.810;9.120;2022-08-06T01:45:13;4.07;;;3.87;;
209;SDS011;90;48.810;9.120;2022-08-06T01:47:43;3.50;;;3.30;;
209;SDS011;90;48.810;9.120;2022-08-06T01:50:16;4.40;;;4.10;;
209;SDS011;90;48.810;9.120;2022-08-06T01:52:46;3.50;;;3.30;;
209;SDS011;90;48.810;9.120;2022-08-06T01:55:15;7.83;;;3.23;;
209;SDS011;90;48.810;9.120;2022-08-06T01:57:46;3.90;;;3.50;;
209;SDS011;90;48.810;9.120;2022-08-06T02:00:16;4.03;;;3.83;;
209;SDS011;90;48.810;9.120;2022-08-06T02:02:44;3.50;;;3.30;;
209;SDS011;90;48.810;9.120;2022-08-06T02:05:12;4.10;;;3.90;;
209;SDS011;90;48.810;9.120;2022-08-06T02:07:41;3.37;;;3.17;;
209;SDS011;90;48.810;9.120;2022-08-06T02:10:12;5.70;;;3.40;;
209;SDS011;90;48.810;9.120;2022-08-06T02:12:42;3.97;;;3.80;;
209;SDS011;90;48.810;9.120;2022-08-06T02:15:15;4.10;;;3.90;;
209;SDS011;90;48.810;9.120;2022-08-06T02:17:46;4.30;;;3.87;;
209;SDS011;90;48.810;9.120;2022-08-06T02:20:17;3.70;;;3.50;;
209;SDS011;90;48.810;9.120;2022-08-06T02:22:49;3.97;;;3.77;;
209;SDS011;90;48.810;9.120;2022-08-06T02:25:17;4.13;;;3.90;;
209;SDS011;90;48.810;9.120;2022-08-06T02:27:47;4.00;;;3.63;;
209;SDS011;90;48.810;9.120;2022-08-06T02:30:16;5.20;;;4.37;;
209;SDS011;90;48.810;9.120;2022-08-06T02:32:44;4.17;;;3.93;;
209;SDS011;90;48.810;9.120;2022-08-06T02:35:11;5.60;;;3.50;;
209;SDS011;90;48.810;9.120;2022-08-06T02:37:40;6.23;;;4.20;;
209;SDS011;90;48.810;9.120;2022-08-06T02:40:12;3.90;;;3.70;;
209;SDS011;90;48.810;9.120;2022-08-06T02:42:49;3.90;;;3.70;;
209;SDS011;90;48.810;9.120;2022-08-06T02:45:21;11.17;;;4.20;;
209;SDS011;90;48.810;9.120;2022-08-06T02:47:55;5.33;;;3.80;;
209;SDS011;90;48.810;9.120;2022-08-06T02:50:29;5.90;;;4.20;;
209;SDS011;90;48.810;9.120;2022-08-06T02:53:03;4.53;;;3.90;;
209;SDS011;90;48.810;9.120;2022-08-06T02:55:33;4.40;;;3.70;;
209;SDS011;90;48.810;9.120;2022-08-06T02:58:07;3.80;;;3.60;;
209;SDS011;90;48.810;9.120;2022-08-06T03:00:38;3.87;;;3.67;;
209;SDS011;90;48.810;9.120;2022-08-06T03:03:08;5.07;;;4.77;;
209;SDS011;90;48.810;9.120;2022-08-06T03:05:39;4.53;;;3.77;;
209;SDS011;90;48.810;9.120;2022-08-06T03:08:08;3.90;;;3.70;;
209;SDS011;90;48.810;9.120;2022-08-06T03:10:36;3.80;;;3.60;;
209;SDS011;90;48.810;9.120;2022-08-06T03:13:05;4.10;;;3.90;;
209;SDS011;90;48.810;9.120;2022-08-06T03:15:34;4.40;;;4.10;;
209;SDS011;90;48.810;9.120;2022-08-06T03:18:03;3.80;;;3.60;;
209;SDS011;90;48.810;9.120;2022-08-06T03:20:32;4.23;;;3.97;;
209;SDS011;90;48.810;9.120;2022-08-06T03:23:01;4.90;;;3.90;;
209;SDS011;90;48.810;9.120;2022-08-06T03:25:35;5.33;;;3.90;;
209;SDS011;90;48.810;9.120;2022-08-06T03:28:06;4.07;;;3.87;;
209;SDS011;90;48.810;9.120;2022-08-06T03:30:35;4.17;;;3.90;;
209;SDS011;90;48.810;9.120;2022-08-06T03:33:05;4.17;;;3.93;;
209;SDS011;90;48.810;9.120;2022-08-06T03:35:35;7.13;;;3.80;;
209;SDS011;90;48.810;9.120;2022-08-06T03:38:05;3.70;;;3.50;;
209;SDS011;90;48.810;9.120;2022-08-06T03:40:34;3.47;;;3.20;;
209;SDS011;90;48.810;9.120;2022-08-06T03:43:07;6.10;;;3.70;;
209;SDS011;90;48.810;9.120;2022-08-06T03:45:36;4.30;;;4.00;;
209;SDS011;90;48.810;9.120;2022-08-06T03:48:06;4.17;;;3.93;;
209;SDS011;90;48.810;9.120;2022-08-06T03:50:36;3.80;;;3.60;;
209;SDS011;90;48.810;9.120;2022-08-06T03:53:08;6.70;;;4.03;;
209;SDS011;90;48.810;9.120;2022-08-06T03:55:45;4.00;;;3.80;;
209;SDS011;90;48.810;9.120;2022-08-06T03:58:14;4.40;;;4.10;;
209;SDS011;90;48.810;9.120;2022-08-06T04:00:44;4.40;;;4.10;;
209;SDS011;90;48.810;9.120;2022-08-06T04:03:13;4.50;;;4.20;;
209;SDS011;90;48.810;9.120;2022-08-06T04:05:42;4.00;;;3.80;;
209;SDS011;90;48.810;9.120;2022-08-06T04:08:10;3.90;;;3.70;;
209;SDS011;90;48.810;9.120;2022-08-06T04:10:40;4.75;;;3.80;;
209;SDS011;90;48.810;9.120;2022-08-06T04:13:15;3.93;;;3.73;;
209;SDS011;90;48.810;9.120;2022-08-06T04:15:43;4.10;;;3.90;;
209;SDS011;90;48.810;9.120;2022-08-06T04:18:13;6.17;;;4.30;;
209;SDS011;90;48.810;9.120;2022-08-06T04:20:42;3.97;;;3.77;;
209;SDS011;90;48.810;9.120;2022-08-06T04:23:12;3.77;;;3.60;;
209;SDS011;90;48.810;9.120;2022-08-06T04:25:40;5.23;;;4.70;;
209;SDS011;90;48.810;9.120;2022-08-06T04:28:10;4.07;;;3.63;;
209;SDS011;90;48.810;9.120;2022-08-06T04:32:45;3.90;;;3.70;;
209;SDS011;90;48.810;9.120;2022-08-06T04:35:13;4.97;;;4.20;;
209;SDS011;90;48.810;9.120;2022-08-06T04:37:42;4.33;;;4.03;;
209;SDS011;90;48.810;9.120;2022-08-06T04:40:10;4.93;;;4.33;;
209;SDS011;90;48.810;9.120;2022-08-06T04:42:38;4.43;;;4.13;;
209;SDS011;90;48.810;9.120;2022-08-06T04:45:06;4.37;;;4.10;;
209;SDS011;90;48.810;9.120;2022-08-06T04:47:34;4.90;;;4.60;;
209;SDS011;90;48.810;9.120;2022-08-06T04:50:05;4.93;;;4.20;;
209;SDS011;90;48.810;9.120;2022-08-06T04:52:32;4.30;;;4.00;;
209;SDS011;90;48.810;9.120;2022-08-06T04:55:01;6.60;;;4.07;;
209;SDS011;90;48.810;9.120;2022-08-06T04:57:31;4.33;;;4.03;;
209;SDS011;90;48.810;9.120;2022-08-06T04:59:59;4.40;;;3.90;;
209;SDS011;90;48.810;9.120;2022-08-06T05:02:29;4.47;;;4.20;;
209;SDS011;90;48.810;9.120;2022-08-06T05:04:57;4.60;;;4.30;;
209;SDS011;90;48.810;9.120;2022-08-06T05:07:29;4.60;;;4.30;;
209;SDS011;90;48.810;9.120;2022-08-06T05:09:58;4.43;;;4.07;;
209;SDS011;90;48.810;9.120;2022-08-06T05:12:29;4.80;;;4.50;;
209;SDS011;90;48.810;9.120;2022-08-06T05:15:05;5.77;;;4.60;;
209;SDS011;90;48.810;9.120;2022-08-06T05:17:42;4.03;;;3.87;;
209;SDS011;90;48.810;9.120;2022-08-06T05:20:15;5.20;;;4.90;;
209;SDS011;90;48.810;9.120;2022-08-06T05:22:49;5.07;;;4.03;;
209;SDS011;90;48.810;9.120;2022-08-06T05:25:25;9.00;;;4.70;;
209;SDS011;90;48.810;9.120;2022-08-06T05:27:53;5.90;;;4.97;;
209;SDS011;90;48.810;9.120;2022-08-06T05:30:23;4.67;;;4.40;;
209;SDS011;90;48.810;9.120;2022-08-06T05:32:51;5.07;;;4.40;;
209;SDS011;90;48.810;9.120;2022-08-06T05:35:20;8.80;;;5.13;;
209;SDS011;90;48.810;9.120;2022-08-06T05:37:53;4.50;;;4.13;;
209;SDS011;90;48.810;9.120;2022-08-06T05:40:22;6.60;;;4.90;;
209;SDS011;90;48.810;9.120;2022-08-06T05:42:51;5.80;;;4.90;;
209;SDS011;90;48.810;9.120;2022-08-06T05:45:20;4.50;;;4.20;;
209;SDS011;90;48.810;9.120;2022-08-06T05:47:48;6.97;;;4.37;;
209;SDS011;90;48.810;9.120;2022-08-06T05:50:19;4.97;;;4.67;;
209;SDS011;90;48.810;9.120;2022-08-06T05:52:55;10.43;;;4.80;;
209;SDS011;90;48.810;9.120;2022-08-06T05:55:27;5.73;;;4.20;;
209;SDS011;90;48.810;9.120;2022-08-06T05:58:07;4.30;;;4.00;;
209;SDS011;90;48.810;9.120;2022-08-06T06:00:39;7.30;;;4.60;;
209;SDS011;90;48.810;9.120;2022-08-06T06:03:10;4.90;;;4.60;;
209;SDS011;90;48.810;9.120;2022-08-06T06:05:39;4.90;;;4.60;;
209;SDS011;90;48.810;9.120;2022-08-06T06:08:09;5.20;;;4.90;;
209;SDS011;90;48.810;9.120;2022-08-06T06:10:46;5.00;;;4.60;;
209;SDS011;90;48.810;9.120;2022-08-06T06:13:16;6.00;;;4.70;;
209;SDS011;90;48.810;9.120;2022-08-06T06:15:51;4.80;;;4.50;;
209;SDS011;90;48.810;9.120;2022-08-06T06:18:30;4.83;;;4.53;;
209;SDS011;90;48.810;9.120;2022-08-06T06:21:11;6.27;;;5.13;;
209;SDS011;90;48.810;9.120;2022-08-06T06:23:56;8.00;;;5.13;;
209;SDS011;90;48.810;9.120;2022-08-06T06:26:39;4.67;;;4.37;;
209;SDS011;90;48.810;9.120;2022-08-06T06:29:14;4.17;;;3.93;;
209;SDS011;90;48.810;9.120;2022-08-06T06:31:54;7.03;;;4.37;;
209;SDS011;90;48.810;9.120;2022-08-06T06:34:30;4.87;;;4.57;;
209;SDS011;90;48.810;9.120;2022-08-06T06:37:19;6.97;;;4.60;;
209;SDS011;90;48.810;9.120;2022-08-06T06:39:58;4.80;;;4.50;;
209;SDS011;90;48.810;9.120;2022-08-06T06:42:37;7.07;;;4.93;;
209;SDS011;90;48.810;9.120;2022-08-06T06:45:11;6.60;;;4.80;;
209;SDS011;90;48.810;9.120;2022-08-06T06:47:46;5.67;;;4.60;;
209;SDS011;90;48.810;9.120;2022-08-06T06:50:25;5.13;;;4.57;;
209;SDS011;90;48.810;9.120;2022-08-06T06:52:55;5.63;;;4.87;;
209;SDS011;90;48.810;9.120;2022-08-06T06:55:25;5.30;;;5.00;;
209;SDS011;90;48.810;9.120;2022-08-06T06:58:01;5.80;;;5.00;;
209;SDS011;90;48.810;9.120;2022-08-06T07:00:34;5.00;;;4.70;;
209;SDS011;90;48.810;9.120;2022-08-06T07:03:04;8.67;;;4.80;;
209;SDS011;90;48.810;9.120;2022-08-06T07:05:32;4.97;;;4.57;;
209;SDS011;90;48.810;9.120;2022-08-06T07:08:02;4.70;;;4.40;;
209;SDS011;90;48.810;9.120;2022-08-06T07:10:35;4.70;;;4.40;;
209;SDS011;90;48.810;9.120;2022-08-06T07:13:05;5.43;;;4.70;;
209;SDS011;90;48.810;9.120;2022-08-06T07:15:34;5.37;;;4.70;;
209;SDS011;90;48.810;9.120;2022-08-06T07:18:02;4.83;;;4.53;;
209;SDS011;90;48.810;9.120;2022-08-06T07:20:31;5.27;;;4.97;;
209;SDS011;90;48.810;9.120;2022-08-06T07:23:00;5.27;;;4.60;;
209;SDS011;90;48.810;9.120;2022-08-06T07:25:34;6.20;;;4.40;;
209;SDS011;90;48.810;9.120;2022-08-06T07:28:07;4.97;;;4.70;;
209;SDS011;90;48.810;9.120;2022-08-06T07:30:36;5.73;;;4.60;;
209;SDS011;90;48.810;9.120;2022-08-06T07:33:04;6.50;;;4.93;;
209;SDS011;90;48.810;9.120;2022-08-06T07:35:33;4.80;;;4.50;;
209;SDS011;90;48.810;9.120;2022-08-06T07:38:03;4.73;;;4.43;;
209;SDS011;90;48.810;9.120;2022-08-06T07:40:33;6.57;;;5.03;;
209;SDS011;90;48.810;9.120;2022-08-06T07:43:08;7.43;;;4.97;;
209;SDS011;90;48.810;9.120;2022-08-06T07:45:38;5.20;;;4.90;;
209;SDS011;90;48.810;9.120;2022-08-06T07:48:07;6.40;;;6.00;;
209;SDS011;90;48.810;9.120;2022-08-06T07:50:37;7.80;;;4.97;;
209;SDS011;90;48.810;9.120;2022-08-06T07:53:07;5.77;;;5.47;;
209;SDS011;90;48.810;9.120;2022-08-06T07:55:37;5.47;;;5.17;;
209;SDS011;90;48.810;9.120;2022-08-06T07:58:06;4.63;;;4.33;;
209;SDS011;90;48.810;9.120;2022-08-06T08:00:34;5.30;;;5.00;;
209;SDS011;90;48.810;9.120;2022-08-06T08:03:02;5.57;;;5.27;;
209;SDS011;90;48.810;9.120;2022-08-06T08:05:48;5.40;;;4.80;;
209;SDS011;90;48.810;9.120;2022-08-06T08:08:33;4.93;;;4.63;;
209;SDS011;90;48.810;9.120;2022-08-06T08:11:01;5.10;;;4.80;;
209;SDS011;90;48.810;9.120;2022-08-06T08:13:30;4.73;;;4.43;;
209;SDS011;90;48.810;9.120;2022-08-06T08:15:58;6.17;;;5.07;;
209;SDS011;90;48.810;9.120;2022-08-06T08:18:30;8.70;;;4.87;;
209;SDS011;90;48.810;9.120;2022-08-06T08:20:58;5.13;;;4.83;;
209;SDS011;90;48.810;9.120;2022-08-06T08:23:28;4.77;;;4.47;;
209;SDS011;90;48.810;9.120;2022-08-06T08:25:57;4.70;;;4.40;;
209;SDS011;90;48.810;9.120;2022-08-06T08:28:26;7.28;;;4.95;;
209;SDS011;90;48.810;9.120;2022-08-06T08:30:55;5.27;;;4.97;;
209;SDS011;90;48.810;9.120;2022-08-06T08:33:24;5.23;;;4.93;;
209;SDS011;90;48.810;9.120;2022-08-06T08:35:51;4.80;;;4.50;;
209;SDS011;90;48.810;9.120;2022-08-06T08:38:23;8.33;;;4.93;;
209;SDS011;90;48.810;9.120;2022-08-06T08:40:51;5.33;;;4.90;;
209;SDS011;90;48.810;9.120;2022-08-06T08:43:22;6.67;;;5.10;;
209;SDS011;90;48.810;9.120;2022-08-06T08:45:51;4.97;;;4.67;;
209;SDS011;90;48.810;9.120;2022-08-06T08:48:24;7.90;;;4.70;;
209;SDS011;90;48.810;9.120;2022-08-06T08:50:54;6.07;;;5.77;;
209;SDS011;90;48.810;9.120;2022-08-06T08:53:27;5.43;;;5.13;;
209;SDS011;90;48.810;9.120;2022-08-06T08:55:57;6.90;;;5.60;;
209;SDS011;90;48.810;9.120;2022-08-06T08:58:26;5.40;;;5.10;;
209;SDS011;90;48.810;9.120;2022-08-06T09:00:53;5.37;;;5.07;;
209;SDS011;90;48.810;9.120;2022-08-06T09:03:20;5.63;;;4.17;;
209;SDS011;90;48.810;9.120;2022-08-06T09:05:49;5.20;;;4.90;;
209;SDS011;90;48.810;9.120;2022-08-06T09:08:16;5.00;;;4.70;;
209;SDS011;90;48.810;9.120;2022-08-06T09:10:44;5.47;;;4.90;;
209;SDS011;90;48.810;9.120;2022-08-06T09:13:11;5.20;;;4.90;;
209;SDS011;90;48.810;9.120;2022-08-06T09:15:39;5.30;;;5.00;;
209;SDS011;90;48.810;9.120;2022-08-06T09:18:07;5.20;;;4.90;;
209;SDS011;90;48.810;9.120;2022-08-06T09:20:34;5.67;;;4.80;;
209;SDS011;90;48.810;9.120;2022-08-06T09:23:04;5.43;;;5.13;;
209;SDS011;90;48.810;9.120;2022-08-06T09:25:35;7.13;;;4.90;;
209;SDS011;90;48.810;9.120;2022-08-06T09:28:10;5.50;;;4.40;;
209;SDS011;90;48.810;9.120;2022-08-06T09:30:56;4.73;;;4.43;;
209;SDS011;90;48.810;9.120;2022-08-06T09:33:24;5.80;;;5.50;;
209;SDS011;90;48.810;9.120;2022-08-06T09:35:59;6.90;;;5.53;;
209;SDS011;90;48.810;9.120;2022-08-06T09:38:29;5.23;;;4.93;;
209;SDS011;90;48.810;9.120;2022-08-06T09:41:11;7.37;;;5.30;;
209;SDS011;90;48.810;9.120;2022-08-06T09:43:38;8.87;;;5.00;;
209;SDS011;90;48.810;9.120;2022-08-06T09:46:06;5.10;;;4.80;;
209;SDS011;90;48.810;9.120;2022-08-06T09:48:34;5.70;;;4.83;;
209;SDS011;90;48.810;9.120;2022-08-06T09:51:01;6.10;;;5.80;;
209;SDS011;90;48.810;9.120;2022-08-06T09:53:32;10.43;;;5.50;;
209;SDS011;90;48.810;9.120;2022-08-06T09:55:59;7.40;;;5.37;;
209;SDS011;90;48.810;9.120;2022-08-06T09:58:30;5.10;;;4.80;;
209;SDS011;90;48.810;9.120;2022-08-06T10:01:12;5.90;;;4.93;;
209;SDS011;90;48.810;9.120;2022-08-06T10:03:40;5.37;;;5.07;;
209;SDS011;90;48.810;9.120;2022-08-06T10:06:12;6.13;;;4.77;;
209;SDS011;90;48.810;9.120;2022-08-06T10:08:42;5.67;;;5.37;;
209;SDS011;90;48.810;9.120;2022-08-06T10:11:09;5.23;;;4.93;;
209;SDS011;90;48.810;9.120;2022-08-06T10:13:37;5.03;;;4.73;;
209;SDS011;90;48.810;9.120;2022-08-06T10:16:17;5.70;;;4.43;;
209;SDS011;90;48.810;9.120;2022-08-06T10:18:46;5.40;;;5.10;;
209;SDS011;90;48.810;9.120;2022-08-06T10:21:15;5.30;;;4.85;;
209;SDS011;90;48.810;9.120;2022-08-06T10:23:46;7.20;;;5.10;;
209;SDS011;90;48.810;9.120;2022-08-06T10:26:17;5.13;;;4.73;;
209;SDS011;90;48.810;9.120;2022-08-06T10:28:46;6.50;;;4.70;;
209;SDS011;90;48.810;9.120;2022-08-06T10:31:16;5.97;;;4.80;;
209;SDS011;90;48.810;9.120;2022-08-06T10:33:47;5.30;;;5.00;;
209;SDS011;90;48.810;9.120;2022-08-06T10:36:19;5.30;;;5.00;;
209;SDS011;90;48.810;9.120;2022-08-06T10:38:52;4.93;;;4.63;;
209;SDS011;90;48.810;9.120;2022-08-06T10:41:22;5.70;;;5.40;;
209;SDS011;90;48.810;9.120;2022-08-06T10:43:49;5.40;;;5.13;;
209;SDS011;90;48.810;9.120;2022-08-06T10:46:20;7.37;;;5.20;;
209;SDS011;90;48.810;9.120;2022-08-06T10:48:48;6.30;;;5.20;;
209;SDS011;90;48.810;9.120;2022-08-06T10:51:15;4.77;;;4.47;;
209;SDS011;90;48.810;9.120;2022-08-06T10:53:44;5.50;;;4.90;;
209;SDS011;90;48.810;9.120;2022-08-06T10:56:14;5.40;;;5.10;;
209;SDS011;90;48.810;9.120;2022-08-06T10:58:42;11.63;;;5.30;;
209;SDS011;90;48.810;9.120;2022-08-06T11:01:10;5.00;;;4.60;;
209;SDS011;90;48.810;9.120;2022-08-06T11:03:53;10.00;;;4.60;;
209;SDS011;90;48.810;9.120;2022-08-06T11:06:33;5.10;;;4.80;;
209;SDS011;90;48.810;9.120;2022-08-06T11:09:27;4.70;;;4.40;;
209;SDS011;90;48.810;9.120;2022-08-06T11:12:11;4.70;;;4.40;;
209;SDS011;90;48.810;9.120;2022-08-06T11:14:51;4.73;;;4.43;;
209;SDS011;90;48.810;9.120;2022-08-06T11:17:19;5.10;;;4.80;;
209;SDS011;90;48.810;9.120;2022-08-06T11:19:47;5.20;;;4.90;;
209;SDS011;90;48.810;9.120;2022-08-06T11:22:38;5.10;;;4.80;;
209;SDS011;90;48.810;9.120;2022-08-06T11:25:09;4.80;;;4.50;;
209;SDS011;90;48.810;9.120;2022-08-06T11:27:50;4.97;;;4.70;;
209;SDS011;90;48.810;9.120;2022-08-06T11:30:21;5.33;;;5.03;;
209;SDS011;90;48.810;9.120;2022-08-06T11:33:01;10.13;;;4.80;;
209;SDS011;90;48.810;9.120;2022-08-06T11:35:38;5.40;;;5.10;;
209;SDS011;90;48.810;9.120;2022-08-06T11:38:12;4.83;;;4.27;;
209;SDS011;90;48.810;9.120;2022-08-06T11:40:52;5.20;;;4.90;;
209;SDS011;90;48.810;9.120;2022-08-06T11:46:18;5.00;;;4.70;;
209;SDS011;90;48.810;9.120;2022-08-06T11:51:46;6.20;;;4.47;;
209;SDS011;90;48.810;9.120;2022-08-06T11:54:15;5.30;;;4.63;;
209;SDS011;90;48.810;9.120;2022-08-06T12:00:00;5.20;;;4.60;;
209;SDS011;90;48.810;9.120;2022-08-06T12:05:41;5.77;;;5.47;;
209;SDS011;90;48.810;9.120;2022-08-06T12:08:10;5.20;;;4.90;;
209;SDS011;90;48.810;9.120;2022-08-06T12:13:49;5.50;;;5.20;;
209;SDS011;90;48.810;9.120;2022-08-06T12:19:13;5.60;;;5.30;;
209;SDS011;90;48.810;9.120;2022-08-06T12:21:42;4.93;;;4.63;;
209;SDS011;90;48.810;9.120;2022-08-06T12:24:12;4.70;;;4.40;;
209;SDS011;90;48.810;9.120;2022-08-06T12:26:39;5.10;;;4.80;;
209;SDS011;90;48.810;9.120;2022-08-06T12:29:08;5.23;;;4.87;;
209;SDS011;90;48.810;9.120;2022-08-06T12:31:36;5.17;;;4.87;;
209;SDS011;90;48.810;9.120;2022-08-06T12:34:06;5.50;;;5.20;;
209;SDS011;90;48.810;9.120;2022-08-06T12:36:34;4.90;;;4.60;;
209;SDS011;90;48.810;9.120;2022-08-06T12:39:04;5.67;;;5.37;;
209;SDS011;90;48.810;9.120;2022-08-06T12:41:41;5.00;;;4.70;;
209;SDS011;90;48.810;9.120;2022-08-06T12:44:09;5.40;;;5.10;;
209;SDS011;90;48.810;9.120;2022-08-06T12:46:38;4.77;;;4.47;;
209;SDS011;90;48.810;9.120;2022-08-06T12:49:11;5.10;;;4.80;;
209;SDS011;90;48.810;9.120;2022-08-06T12:51:38;5.40;;;5.10;;
209;SDS011;90;48.810;9.120;2022-08-06T12:54:08;4.93;;;4.43;;
209;SDS011;90;48.810;9.120;2022-08-06T12:56:38;5.10;;;4.80;;
209;SDS011;90;48.810;9.120;2022-08-06T12:59:10;5.17;;;4.87;;
209;SDS011;90;48.810;9.120;2022-08-06T13:01:39;5.43;;;5.13;;
209;SDS011;90;48.810;9.120;2022-08-06T13:04:11;5.30;;;5.00;;
209;SDS011;90;48.810;9.120;2022-08-06T13:06:39;5.50;;;5.20;;
209;SDS011;90;48.810;9.120;2022-08-06T13:09:06;5.60;;;5.30;;
209;SDS011;90;48.810;9.120;2022-08-06T13:11:34;6.03;;;5.73;;
209;SDS011;90;48.810;9.120;2022-08-06T13:14:09;5.23;;;4.93;;
209;SDS011;90;48.810;9.120;2022-08-06T13:16:41;4.93;;;4.63;;
209;SDS011;90;48.810;9.120;2022-08-06T13:19:11;5.00;;;4.70;;
209;SDS011;90;48.810;9.120;2022-08-06T13:21:40;5.57;;;5.27;;
209;SDS011;90;48.810;9.120;2022-08-06T13:24:08;5.80;;;5.20;;
209;SDS011;90;48.810;9.120;2022-08-06T13:26:49;5.33;;;5.03;;
209;SDS011;90;48.810;9.120;2022-08-06T13:29:19;4.80;;;4.50;;
209;SDS011;90;48.810;9.120;2022-08-06T13:31:57;5.67;;;4.93;;
209;SDS011;90;48.810;9.120;2022-08-06T13:34:39;5.10;;;4.80;;
209;SDS011;90;48.810;9.120;2022-08-06T13:37:13;4.83;;;4.40;;
209;SDS011;90;48.810;9.120;2022-08-06T13:39:48;4.70;;;4.40;;
209;SDS011;90;48.810;9.120;2022-08-06T13:42:16;4.33;;;4.07;;
209;SDS011;90;48.810;9.120;2022-08-06T13:44:43;4.50;;;4.20;;
209;SDS011;90;48.810;9.120;2022-08-06T13:47:12;4.80;;;4.50;;
209;SDS011;90;48.810;9.120;2022-08-06T13:49:43;5.20;;;4.90;;
209;SDS011;90;48.810;9.120;2022-08-06T13:52:11;3.90;;;3.80;;
209;SDS011;90;48.810;9.120;2022-08-06T13:54:41;4.60;;;4.30;;
209;SDS011;90;48.810;9.120;2022-08-06T13:57:08;4.70;;;4.40;;
209;SDS011;90;48.810;9.120;2022-08-06T13:59:36;5.30;;;5.00;;
209;SDS011;90;48.810;9.120;2022-08-06T14:02:04;11.10;;;5.10;;
209;SDS011;90;48.810;9.120;2022-08-06T14:04:34;5.73;;;4.90;;
209;SDS011;90;48.810;9.120;2022-08-06T14:07:04;4.40;;;4.10;;
209;SDS011;90;48.810;9.120;2022-08-06T14:09:34;4.73;;;4.43;;
209;SDS011;90;48.810;9.120;2022-08-06T14:12:01;4.40;;;4.10;;
209;SDS011;90;48.810;9.120;2022-08-06T14:14:33;4.87;;;4.57;;
209;SDS011;90;48.810;9.120;2022-08-06T14:17:00;5.83;;;4.63;;
209;SDS011;90;48.810;9.120;2022-08-06T14:19:27;4.80;;;4.50;;
209;SDS011;90;48.810;9.120;2022-08-06T14:21:55;4.83;;;4.53;;
209;SDS011;90;48.810;9.120;2022-08-06T14:24:30;6.33;;;4.40;;
209;SDS011;90;48.810;9.120;2022-08-06T14:26:57;4.53;;;4.23;;
209;SDS011;90;48.810;9.120;2022-08-06T14:29:24;5.13;;;4.30;;
209;SDS011;90;48.810;9.120;2022-08-06T14:31:54;4.57;;;4.27;;
209;SDS011;90;48.810;9.120;2022-08-06T14:34:21;4.50;;;4.20;;
209;SDS011;90;48.810;9.120;2022-08-06T14:36:48;4.70;;;4.40;;
209;SDS011;90;48.810;9.120;2022-08-06T14:39:15;4.57;;;4.27;;
209;SDS011;90;48.810;9.120;2022-08-06T14:41:44;4.33;;;4.03;;
209;SDS011;90;48.810;9.120;2022-08-06T14:44:30;5.90;;;4.20;;
209;SDS011;90;48.810;9.120;2022-08-06T14:47:14;4.53;;;4.23;;
209;SDS011;90;48.810;9.120;2022-08-06T14:49:42;6.63;;;4.17;;
209;SDS011;90;48.810;9.120;2022-08-06T14:52:10;3.83;;;3.63;;
209;SDS011;90;48.810;9.120;2022-08-06T14:54:37;8.13;;;4.10;;
209;SDS011;90;48.810;9.120;2022-08-06T14:57:07;4.60;;;3.77;;
209;SDS011;90;48.810;9.120;2022-08-06T14:59:35;4.50;;;4.17;;
209;SDS011;90;48.810;9.120;2022-08-06T15:02:02;4.30;;;4.00;;
209;SDS011;90;48.810;9.120;2022-08-06T15:04:30;3.90;;;3.70;;
209;SDS011;90;48.810;9.120;2022-08-06T15:06:57;4.03;;;3.83;;
209;SDS011;90;48.810;9.120;2022-08-06T15:09:27;4.40;;;4.10;;
209;SDS011;90;48.810;9.120;2022-08-06T15:11:54;4.10;;;3.90;;
209;SDS011;90;48.810;9.120;2022-08-06T15:14:23;4.03;;;3.83;;
209;SDS011;90;48.810;9.120;2022-08-06T15:16:50;7.20;;;4.53;;
209;SDS011;90;48.810;9.120;2022-08-06T15:19:17;4.53;;;4.23;;
209;SDS011;90;48.810;9.120;2022-08-06T15:21:44;4.40;;;4.10;;
209;SDS011;90;48.810;9.120;2022-08-06T15:24:12;4.13;;;3.80;;
209;SDS011;90;48.810;9.120;2022-08-06T15:26:39;4.30;;;4.00;;
209;SDS011;90;48.810;9.120;2022-08-06T15:29:07;3.93;;;3.77;;
209;SDS011;90;48.810;9.120;2022-08-06T15:31:35;4.07;;;3.83;;
209;SDS011;90;48.810;9.120;2022-08-06T15:34:02;3.80;;;3.63;;
209;SDS011;90;48.810;9.120;2022-08-06T15:36:30;14.10;;;4.07;;
209;SDS011;90;48.810;9.120;2022-08-06T15:38:57;3.70;;;3.30;;
209;SDS011;90;48.810;9.120;2022-08-06T15:41:24;3.83;;;3.63;;
209;SDS011;90;48.810;9.120;2022-08-06T15:43:54;4.10;;;3.90;;
209;SDS011;90;48.810;9.120;2022-08-06T15:46:21;4.40;;;4.10;;
209;SDS011;90;48.810;9.120;2022-08-06T15:48:50;4.03;;;3.83;;
209;SDS011;90;48.810;9.120;2022-08-06T15:51:19;5.80;;;3.93;;
209;SDS011;90;48.810;9.120;2022-08-06T15:53:49;4.33;;;4.03;;
209;SDS011;90;48.810;9.120;2022-08-06T15:56:16;3.70;;;3.50;;
209;SDS011;90;48.810;9.120;2022-08-06T15:58:43;4.03;;;3.83;;
209;SDS011;90;48.810;9.120;2022-08-06T16:01:11;7.67;;;3.73;;
209;SDS011;90;48.810;9.120;2022-08-06T16:03:38;5.90;;;5.60;;
209;SDS011;90;48.810;9.120;2022-08-06T16:06:06;4.30;;;4.00;;
209;SDS011;90;48.810;9.120;2022-08-06T16:08:34;3.90;;;3.70;;
209;SDS011;90;48.810;9.120;2022-08-06T16:11:02;4.47;;;3.63;;
209;SDS011;90;48.810;9.120;2022-08-06T16:13:30;4.73;;;3.70;;
209;SDS011;90;48.810;9.120;2022-08-06T16:15:57;5.00;;;4.70;;
209;SDS011;90;48.810;9.120;2022-08-06T16:18:24;4.27;;;3.93;;
209;SDS011;90;48.810;9.120;2022-08-06T16:20:55;4.30;;;4.03;;
209;SDS011;90;48.810;9.120;2022-08-06T16:23:23;3.77;;;3.57;;
209;SDS011;90;48.810;9.120;2022-08-06T16:25:50;5.40;;;3.70;;
209;SDS011;90;48.810;9.120;2022-08-06T16:28:18;4.60;;;3.70;;
209;SDS011;90;48.810;9.120;2022-08-06T16:30:45;3.90;;;3.70;;
209;SDS011;90;48.810;9.120;2022-08-06T16:33:15;3.70;;;3.50;;
209;SDS011;90;48.810;9.120;2022-08-06T16:35:45;8.40;;;3.80;;
209;SDS011;90;48.810;9.120;2022-08-06T16:38:15;5.13;;;3.57;;
209;SDS011;90;48.810;9.120;2022-08-06T16:40:44;5.50;;;3.57;;
209;SDS011;90;48.810;9.120;2022-08-06T16:43:11;3.27;;;3.07;;